createdAt,value
2023-01-28T00:01:49.934Z,99906.69
2023-01-28T00:04:53.676Z,99917.66
2023-01-28T00:07:58.090Z,99905.97
2023-01-28T00:11:02.881Z,99905.47
2023-01-28T00:14:06.045Z,99910.34
2023-01-28T00:17:09.488Z,99917.25
2023-01-28T00:20:12.903Z,99913.38
2023-01-28T00:23:16.203Z,99908.56
2023-01-28T00:26:19.169Z,99909.25
2023-01-28T00:29:23.226Z,99906.28
2023-01-28T00:32:26.268Z,99909.44
2023-01-28T00:35:30.406Z,99907.97
2023-01-28T00:38:34.354Z,99917.25
2023-01-28T00:41:37.794Z,99916.75
2023-01-28T00:44:40.789Z,99920.81
2023-01-28T00:47:45.410Z,99923.47
2023-01-28T00:50:49.545Z,99928.81
2023-01-28T00:53:54.632Z,99929.41
2023-01-28T00:56:57.598Z,99926.13
2023-01-28T01:00:02.198Z,99933.84
2023-01-28T01:03:05.152Z,99934.81
2023-01-28T01:06:09.173Z,99941.34
2023-01-28T01:09:13.111Z,99944.34
2023-01-28T01:12:17.953Z,99947.69
2023-01-28T01:15:20.977Z,99946.31
2023-01-28T01:18:24.176Z,99941.25
2023-01-28T01:21:29.416Z,99937.31
2023-01-28T01:24:34.314Z,99941.47
2023-01-28T01:27:37.512Z,99947.47
2023-01-28T01:30:40.748Z,99944.09
2023-01-28T01:33:45.530Z,99949.84
2023-01-28T01:36:48.957Z,99948.47
2023-01-28T01:39:51.877Z,99943.81
2023-01-28T01:42:55.127Z,99936.78
2023-01-28T01:46:01.260Z,99948.47
2023-01-28T01:49:26.392Z,99939.78
2023-01-28T01:52:33.774Z,99937.97
2023-01-28T01:55:40.330Z,99942.94
2023-01-28T01:58:44.724Z,99943.91
2023-01-28T02:01:48.315Z,99938.97
2023-01-28T02:04:51.775Z,99937.56
2023-01-28T02:08:16.173Z,99932.66
2023-01-28T02:11:21.270Z,99934.94
2023-01-28T02:14:31.358Z,99936.19
2023-01-28T02:17:36.557Z,99935.16
2023-01-28T02:20:52.934Z,99924.56
2023-01-28T02:24:30.507Z,99933.75
2023-01-28T02:27:52.365Z,99933.16
2023-01-28T02:31:18.604Z,99935.25
2023-01-28T02:34:40.730Z,99942.16
2023-01-28T02:38:01.127Z,99947.59
2023-01-28T02:41:10.414Z,99943.13
2023-01-28T02:44:15.585Z,99939.91
2023-01-28T02:47:37.417Z,99943.47
2023-01-28T02:50:49.527Z,99949.06
2023-01-28T02:54:00.499Z,99944.84
2023-01-28T02:57:19.845Z,99945.91
2023-01-28T03:00:58.299Z,99939.91
2023-01-28T03:04:16.598Z,99936.44
2023-01-28T03:07:20.221Z,99937.81
2023-01-28T03:10:26.648Z,99936.06
2023-01-28T03:13:48.199Z,99941.16
2023-01-28T03:17:10.696Z,99941.75
2023-01-28T03:20:34.073Z,99936.94
2023-01-28T03:24:24.708Z,99938.59
2023-01-28T03:27:58.378Z,99942.34
2023-01-28T03:31:25.229Z,99937.22
2023-01-28T03:34:47.384Z,99936.84
2023-01-28T03:37:50.864Z,99940.78
2023-01-28T03:41:00.323Z,99947.69
2023-01-28T03:44:23.869Z,99947.19
2023-01-28T03:47:32.121Z,99949.84
2023-01-28T03:50:36.380Z,99942.28
2023-01-28T03:53:40.510Z,99943.03
2023-01-28T03:56:43.724Z,99946.50
2023-01-28T03:59:49.835Z,99941.25
2023-01-28T04:02:53.371Z,99943.56
2023-01-28T04:06:05.774Z,99948.78
2023-01-28T04:09:10.146Z,99951.03
2023-01-28T04:12:15.017Z,99951.34
2023-01-28T04:15:18.388Z,99954.87
2023-01-28T04:18:27.501Z,99946.19
2023-01-28T04:21:31.206Z,99959.22
2023-01-28T04:24:35.872Z,99950.13
2023-01-28T04:27:38.812Z,99954.59
2023-01-28T04:30:43.795Z,99963.97
2023-01-28T04:33:46.874Z,99959.12
2023-01-28T04:36:50.530Z,99956.28
2023-01-28T04:39:54.231Z,99960.22
2023-01-28T04:42:57.924Z,99958.25
2023-01-28T04:46:01.357Z,99965.25
2023-01-28T04:49:05.285Z,99965.97
2023-01-28T04:52:08.740Z,99970.75
2023-01-28T04:55:19.501Z,99981.41
2023-01-28T04:58:22.560Z,99976.31
2023-01-28T05:01:26.647Z,99979.97
2023-01-28T05:04:31.653Z,99983.72
2023-01-28T05:07:36.527Z,99989.16
2023-01-28T05:10:42.004Z,99989.22
2023-01-28T05:13:45.405Z,99992.31
2023-01-28T05:16:50.699Z,99987.84
2023-01-28T05:19:55.553Z,99991.41
2023-01-28T05:22:58.811Z,99989.88
2023-01-28T05:26:02.076Z,99986.66
2023-01-28T05:29:05.202Z,99991.78
2023-01-28T05:32:09.401Z,99996.53
2023-01-28T05:35:13.022Z,99999.94
2023-01-28T05:38:16.935Z,99998.63
2023-01-28T05:41:19.983Z,100004.03
2023-01-28T05:44:23.873Z,100005.19
2023-01-28T05:47:28.627Z,100007.59
2023-01-28T05:50:32.646Z,100015.34
2023-01-28T05:53:41.014Z,100007.75
2023-01-28T05:56:44.663Z,100017.34
2023-01-28T05:59:47.726Z,100015.38
2023-01-28T06:02:52.951Z,100016.37
2023-01-28T06:05:56.209Z,100026.44
2023-01-28T06:08:59.183Z,100029.47
2023-01-28T06:12:03.739Z,100031.34
2023-01-28T06:15:07.655Z,100031.97
2023-01-28T06:18:10.930Z,100036.25
2023-01-28T06:21:13.711Z,100034.84
2023-01-28T06:24:16.850Z,100044.19
2023-01-28T06:27:19.839Z,100036.44
2023-01-28T06:30:23.144Z,100040.94
2023-01-28T06:33:26.211Z,100040.28
2023-01-28T06:36:29.429Z,100044.44
2023-01-28T06:39:33.318Z,100044.31
2023-01-28T06:42:36.346Z,100057.03
2023-01-28T06:45:39.249Z,100060.41
2023-01-28T06:48:42.560Z,100054.97
2023-01-28T06:51:46.365Z,100065.75
2023-01-28T06:54:49.578Z,100067.44
2023-01-28T06:57:53.176Z,100069.44
2023-01-28T07:00:56.513Z,100069.19
2023-01-28T07:03:59.488Z,100077.44
2023-01-28T07:07:02.775Z,100086.66
2023-01-28T07:10:06.313Z,100084.03
2023-01-28T07:13:09.758Z,100088.13
2023-01-28T07:16:12.732Z,100095.53
2023-01-28T07:19:16.092Z,100091.72
2023-01-28T07:22:19.036Z,100099.28
2023-01-28T07:25:22.210Z,100097.31
2023-01-28T07:28:25.155Z,100099.75
2023-01-28T07:31:28.852Z,100099.34
2023-01-28T07:34:32.027Z,100093.38
2023-01-28T07:37:35.768Z,100096.19
2023-01-28T07:40:38.887Z,100097.75
2023-01-28T07:43:42.209Z,100105.19
2023-01-28T07:46:45.321Z,100112.59
2023-01-28T07:49:48.717Z,100117.88
2023-01-28T07:52:51.889Z,100110.81
2023-01-28T07:56:02.285Z,100118.03
2023-01-28T07:59:05.296Z,100117.19
2023-01-28T08:02:12.125Z,100118.75
2023-01-28T08:05:20.557Z,100119.59
2023-01-28T08:08:24.558Z,100126.09
2023-01-28T08:11:27.587Z,100132.63
2023-01-28T08:14:30.629Z,100129.63
2023-01-28T08:17:34.268Z,100130.56
2023-01-28T08:20:37.296Z,100133.75
2023-01-28T08:23:41.362Z,100140.25
2023-01-28T08:26:44.938Z,100135.00
2023-01-28T08:29:48.145Z,100144.94
2023-01-28T08:32:51.321Z,100145.97
2023-01-28T08:35:55.697Z,100154.50
2023-01-28T08:38:58.683Z,100150.06
2023-01-28T08:42:03.114Z,100160.50
2023-01-28T08:45:07.132Z,100154.03
2023-01-28T08:48:13.344Z,100156.56
2023-01-28T08:51:16.342Z,100158.91
2023-01-28T08:54:19.537Z,100158.00
2023-01-28T08:57:22.445Z,100150.81
2023-01-28T09:00:25.745Z,100153.09
2023-01-28T09:03:28.800Z,100155.87
2023-01-28T09:06:32.402Z,100148.94
2023-01-28T09:09:35.401Z,100162.16
2023-01-28T09:12:39.002Z,100155.28
2023-01-28T09:15:42.799Z,100163.63
2023-01-28T09:18:46.235Z,100154.56
2023-01-28T09:21:49.569Z,100167.00
2023-01-28T09:24:52.810Z,100162.50
2023-01-28T09:27:56.445Z,100164.69
2023-01-28T09:31:08.639Z,100166.75
2023-01-28T09:34:12.088Z,100166.59
2023-01-28T09:37:15.597Z,100174.22
2023-01-28T09:40:32.133Z,100172.50
2023-01-28T09:43:57.342Z,100173.09
2023-01-28T09:47:03.281Z,100173.38
2023-01-28T09:50:34.135Z,100177.62
2023-01-28T09:53:44.170Z,100176.16
2023-01-28T09:56:50.725Z,100174.19
2023-01-28T09:59:54.478Z,100181.12
2023-01-28T10:03:31.565Z,100184.47
2023-01-28T10:07:01.152Z,100173.22
2023-01-28T10:10:11.190Z,100188.72
2023-01-28T10:14:06.885Z,100178.34
2023-01-28T10:17:51.841Z,100183.81
2023-01-28T10:20:58.299Z,100187.53
2023-01-28T10:24:26.495Z,100175.56
2023-01-28T10:27:31.533Z,100182.09
2023-01-28T10:30:35.634Z,100170.91
2023-01-28T10:33:40.121Z,100172.09
2023-01-28T10:36:43.582Z,100173.13
2023-01-28T10:39:47.006Z,100176.03
2023-01-28T10:42:50.680Z,100172.94
2023-01-28T10:45:54.038Z,100172.75
2023-01-28T10:49:04.253Z,100173.94
2023-01-28T10:52:15.324Z,100182.75
2023-01-28T10:55:18.449Z,100175.97
2023-01-28T10:58:25.274Z,100167.03
2023-01-28T11:01:45.275Z,100170.19
2023-01-28T11:04:48.679Z,100166.00
2023-01-28T11:07:52.279Z,100174.53
2023-01-28T11:10:56.900Z,100168.97
2023-01-28T11:14:01.379Z,100167.22
2023-01-28T11:17:04.675Z,100159.88
2023-01-28T11:20:14.373Z,100156.34
2023-01-28T11:23:33.572Z,100157.81
2023-01-28T11:26:38.701Z,100161.34
2023-01-28T11:29:42.369Z,100160.22
2023-01-28T11:32:45.326Z,100160.84
2023-01-28T11:35:57.828Z,100160.41
2023-01-28T11:39:16.729Z,100160.91
2023-01-28T11:42:21.775Z,100159.94
2023-01-28T11:46:07.827Z,100157.12
2023-01-28T11:49:43.308Z,100163.13
2023-01-28T11:53:07.879Z,100152.53
2023-01-28T11:56:30.767Z,100149.91
2023-01-28T11:59:57.606Z,100144.53
2023-01-28T12:03:22.178Z,100140.06
2023-01-28T12:06:44.149Z,100149.75
2023-01-28T12:10:20.253Z,100143.50
2023-01-28T12:13:42.315Z,100142.88
2023-01-28T12:17:00.381Z,100142.75
2023-01-28T12:20:35.751Z,100144.44
2023-01-28T12:23:52.581Z,100150.38
2023-01-28T12:27:22.081Z,100144.84
2023-01-28T12:31:00.587Z,100143.62
2023-01-28T12:34:32.038Z,100140.06
2023-01-28T12:37:43.588Z,100138.75
2023-01-28T12:40:55.804Z,100150.69
2023-01-28T12:44:06.911Z,100141.03
2023-01-28T12:47:13.055Z,100140.41
2023-01-28T12:50:26.826Z,100137.69
2023-01-28T12:53:51.730Z,100143.56
2023-01-28T12:56:55.778Z,100150.28
2023-01-28T13:00:08.597Z,100150.41
2023-01-28T13:03:30.160Z,100147.28
2023-01-28T13:06:41.635Z,100149.75
2023-01-28T13:10:10.772Z,100152.44
2023-01-28T13:13:20.517Z,100152.25
2023-01-28T13:16:36.037Z,100148.19
2023-01-28T13:19:41.563Z,100159.66
2023-01-28T13:22:45.890Z,100167.34
2023-01-28T13:25:52.171Z,100167.66
2023-01-28T13:29:08.404Z,100170.97
2023-01-28T13:32:32.377Z,100170.94
2023-01-28T13:35:40.270Z,100174.44
2023-01-28T13:38:44.646Z,100172.50
2023-01-28T13:41:56.985Z,100174.19
2023-01-28T13:45:21.602Z,100174.91
2023-01-28T13:48:39.290Z,100182.53
2023-01-28T13:51:54.002Z,100183.50
2023-01-28T13:55:03.265Z,100189.37
2023-01-28T13:58:25.911Z,100174.91
2023-01-28T14:01:37.785Z,100188.28
2023-01-28T14:05:13.770Z,100188.75
2023-01-28T14:08:44.042Z,100187.31
2023-01-28T14:12:11.635Z,100195.12
2023-01-28T14:15:23.272Z,100197.50
2023-01-28T14:18:35.934Z,100204.66
2023-01-28T14:21:38.843Z,100202.38
2023-01-28T14:24:42.045Z,100208.81
2023-01-28T14:27:48.216Z,100209.94
2023-01-28T14:30:56.376Z,100203.59
2023-01-28T14:34:07.128Z,100210.09
2023-01-28T14:37:14.134Z,100221.38
2023-01-28T14:40:17.831Z,100224.28
2023-01-28T14:43:25.666Z,100223.34
2023-01-28T14:46:41.030Z,100222.59
2023-01-28T14:49:53.477Z,100224.63
2023-01-28T14:53:19.411Z,100229.53
2023-01-28T14:56:42.646Z,100235.31
2023-01-28T14:59:50.085Z,100240.47
2023-01-28T15:02:53.709Z,100251.72
2023-01-28T15:06:17.241Z,100248.91
2023-01-28T15:09:23.730Z,100253.03
2023-01-28T15:12:28.944Z,100255.97
2023-01-28T15:15:33.994Z,100254.97
2023-01-28T15:18:41.871Z,100261.88
2023-01-28T15:21:45.985Z,100262.47
2023-01-28T15:24:50.448Z,100267.16
2023-01-28T15:27:55.458Z,100263.69
2023-01-28T15:31:01.022Z,100263.50
2023-01-28T15:34:10.347Z,100274.37
2023-01-28T15:37:20.428Z,100279.44
2023-01-28T15:40:26.067Z,100276.28
2023-01-28T15:43:35.972Z,100284.59
2023-01-28T15:46:40.303Z,100278.06
2023-01-28T15:49:46.465Z,100279.78
2023-01-28T15:52:50.298Z,100289.84
2023-01-28T15:56:05.198Z,100293.31
2023-01-28T15:59:24.777Z,100297.38
2023-01-28T16:02:32.003Z,100290.75
2023-01-28T16:05:38.907Z,100294.69
2023-01-28T16:08:52.930Z,100300.03
2023-01-28T16:12:12.435Z,100302.53
2023-01-28T16:15:19.422Z,100305.19
2023-01-28T16:18:38.051Z,100305.00
2023-01-28T16:21:45.992Z,100309.84
2023-01-28T16:24:53.799Z,100308.16
2023-01-28T16:27:58.823Z,100309.44
2023-01-28T16:31:02.284Z,100314.19
2023-01-28T16:34:06.194Z,100317.44
2023-01-28T16:37:10.993Z,100325.03
2023-01-28T16:40:18.576Z,100324.84
2023-01-28T16:43:22.577Z,100326.25
2023-01-28T16:46:27.764Z,100328.53
2023-01-28T16:49:30.867Z,100331.38
2023-01-28T16:52:34.055Z,100330.59
2023-01-28T16:55:38.827Z,100333.38
2023-01-28T16:58:42.308Z,100332.88
2023-01-28T17:01:47.408Z,100329.63
2023-01-28T17:04:52.312Z,100334.84
2023-01-28T17:07:59.668Z,100336.53
2023-01-28T17:11:04.035Z,100342.00
2023-01-28T17:14:08.897Z,100338.53
2023-01-28T17:17:12.030Z,100343.06
2023-01-28T17:20:17.695Z,100343.69
2023-01-28T17:23:25.893Z,100341.41
2023-01-28T17:26:29.572Z,100354.75
2023-01-28T17:29:32.917Z,100351.97
2023-01-28T17:32:36.723Z,100354.53
2023-01-28T17:35:40.373Z,100359.97
2023-01-28T17:38:47.368Z,100371.47
2023-01-28T17:41:52.743Z,100369.09
2023-01-28T17:45:03.413Z,100381.09
2023-01-28T17:48:07.976Z,100379.41
2023-01-28T17:51:15.246Z,100377.47
2023-01-28T17:54:18.990Z,100375.25
2023-01-28T17:57:24.440Z,100387.50
2023-01-28T18:00:29.737Z,100382.28
2023-01-28T18:03:34.770Z,100393.31
2023-01-28T18:06:38.106Z,100379.97
2023-01-28T18:09:44.028Z,100389.78
2023-01-28T18:12:47.450Z,100397.22
2023-01-28T18:15:54.421Z,100397.75
2023-01-28T18:18:58.126Z,100402.22
2023-01-28T18:22:01.960Z,100404.41
2023-01-28T18:25:06.001Z,100404.00
2023-01-28T18:28:11.784Z,100410.47
2023-01-28T18:31:17.143Z,100397.88
2023-01-28T18:34:22.789Z,100396.53
2023-01-28T18:37:26.060Z,100408.09
2023-01-28T18:40:30.419Z,100415.38
2023-01-28T18:43:35.642Z,100412.72
2023-01-28T18:46:40.059Z,100421.00
2023-01-28T18:49:44.097Z,100414.81
2023-01-28T18:52:48.345Z,100416.09
2023-01-28T18:55:52.529Z,100422.22
2023-01-28T18:59:05.706Z,100406.47
2023-01-28T19:02:13.944Z,100414.94
2023-01-28T19:05:19.707Z,100412.00
2023-01-28T19:08:24.584Z,100425.94
2023-01-28T19:11:31.132Z,100424.03
2023-01-28T19:14:34.510Z,100420.59
2023-01-28T19:17:39.372Z,100424.63
2023-01-28T19:20:44.490Z,100439.12
2023-01-28T19:23:58.889Z,100447.56
2023-01-28T19:27:02.844Z,100442.81
2023-01-28T19:30:08.234Z,100436.50
2023-01-28T19:33:13.045Z,100448.22
2023-01-28T19:36:17.499Z,100447.84
2023-01-28T19:39:21.408Z,100454.53
2023-01-28T19:42:25.174Z,100462.12
2023-01-28T19:45:29.091Z,100462.44
2023-01-28T19:48:33.617Z,100462.12
2023-01-28T19:51:37.513Z,100477.03
2023-01-28T19:54:43.187Z,100471.19
2023-01-28T19:57:46.694Z,100473.28
2023-01-28T20:00:51.986Z,100473.44
2023-01-28T20:03:59.063Z,100474.28
2023-01-28T20:07:05.132Z,100474.91
2023-01-28T20:10:11.975Z,100476.84
2023-01-28T20:13:15.533Z,100478.13
2023-01-28T20:16:29.060Z,100495.41
2023-01-28T20:19:36.786Z,100492.00
2023-01-28T20:22:42.189Z,100487.22
2023-01-28T20:25:51.128Z,100495.97
2023-01-28T20:28:55.551Z,100491.47
2023-01-28T20:32:15.105Z,100495.75
2023-01-28T20:35:20.593Z,100500.28
2023-01-28T20:38:26.663Z,100501.47
2023-01-28T20:41:32.272Z,100501.41
2023-01-28T20:44:38.129Z,100508.13
2023-01-28T20:47:42.899Z,100508.37
2023-01-28T20:50:47.872Z,100516.38
2023-01-28T20:53:53.443Z,100515.28
2023-01-28T20:56:57.907Z,100518.66
2023-01-28T21:00:01.977Z,100522.63
2023-01-28T21:03:05.890Z,100519.66
2023-01-28T21:06:09.386Z,100518.31
2023-01-28T21:09:13.248Z,100524.38
2023-01-28T21:12:17.602Z,100522.47
2023-01-28T21:15:21.267Z,100527.06
2023-01-28T21:18:26.837Z,100534.63
2023-01-28T21:21:30.419Z,100523.31
2023-01-28T21:24:34.033Z,100533.75
2023-01-28T21:27:37.445Z,100531.69
2023-01-28T21:30:41.169Z,100534.31
2023-01-28T21:33:47.970Z,100533.78
2023-01-28T21:36:51.415Z,100535.50
2023-01-28T21:39:54.611Z,100538.69
2023-01-28T21:42:57.981Z,100529.59
2023-01-28T21:46:02.794Z,100531.47
2023-01-28T21:49:08.524Z,100527.25
2023-01-28T21:52:13.979Z,100533.16
2023-01-28T21:55:20.718Z,100543.53
2023-01-28T21:58:43.281Z,100534.28
2023-01-28T22:01:46.642Z,100538.56
2023-01-28T22:04:50.874Z,100532.94
2023-01-28T22:07:53.984Z,100548.09
2023-01-28T22:11:05.491Z,100543.66
2023-01-28T22:14:08.699Z,100547.84
2023-01-28T22:17:12.410Z,100556.94
2023-01-28T22:20:15.608Z,100551.88
2023-01-28T22:23:19.015Z,100550.22
2023-01-28T22:26:21.981Z,100554.06
2023-01-28T22:29:25.733Z,100557.19
2023-01-28T22:32:28.654Z,100558.09
2023-01-28T22:35:32.652Z,100557.78
2023-01-28T22:38:39.399Z,100561.44
2023-01-28T22:41:45.034Z,100566.50
2023-01-28T22:44:49.266Z,100559.06
2023-01-28T22:47:52.950Z,100550.66
2023-01-28T22:51:10.797Z,100561.31
2023-01-28T22:54:15.083Z,100559.03
2023-01-28T22:57:18.219Z,100557.69
2023-01-28T23:00:27.251Z,100560.91
2023-01-28T23:03:30.502Z,100554.00
2023-01-28T23:06:34.501Z,100555.41
2023-01-28T23:09:37.474Z,100550.91
2023-01-28T23:12:40.702Z,100562.09
2023-01-28T23:16:04.545Z,100556.56
2023-01-28T23:19:27.376Z,100550.69
2023-01-28T23:22:50.967Z,100545.13
2023-01-28T23:25:54.217Z,100551.81
2023-01-28T23:28:57.104Z,100558.75
2023-01-28T23:32:03.920Z,100549.75
2023-01-28T23:35:11.129Z,100555.63
2023-01-28T23:38:14.368Z,100557.50
2023-01-28T23:41:17.398Z,100557.50
2023-01-28T23:44:28.203Z,100564.16
2023-01-28T23:47:31.582Z,100568.13
2023-01-28T23:50:35.106Z,100559.34
2023-01-28T23:53:38.052Z,100572.09
2023-01-28T23:56:41.261Z,100565.16
2023-01-28T23:59:44.144Z,100572.37
